createdAt,value
2018-04-17T00:00:37.522Z,95.46
2018-04-17T00:01:37.530Z,95.70
2018-04-17T00:02:38.268Z,96.55
2018-04-17T00:03:37.566Z,96.36
2018-04-17T00:04:37.556Z,96.55
2018-04-17T00:05:37.571Z,96.36
2018-04-17T00:06:37.564Z,96.75
2018-04-17T00:07:37.569Z,96.36
2018-04-17T00:08:37.461Z,96.27
2018-04-17T00:09:37.496Z,96.94
2018-04-17T00:10:37.531Z,97.41
2018-04-17T00:11:37.465Z,97.22
2018-04-17T00:12:37.503Z,97.22
2018-04-17T00:13:37.516Z,97.31
2018-04-17T00:14:37.453Z,97.51
2018-04-17T00:15:37.541Z,97.51
2018-04-17T00:16:37.433Z,97.22
2018-04-17T00:17:37.453Z,97.31
2018-04-17T00:18:37.440Z,97.51
2018-04-17T00:19:37.404Z,97.41
2018-04-17T00:20:37.454Z,97.31
2018-04-17T00:21:37.384Z,97.13
2018-04-17T00:22:37.416Z,97.31
2018-04-17T00:23:37.386Z,97.51
2018-04-17T00:24:37.397Z,97.70
2018-04-17T00:25:37.399Z,97.51
2018-04-17T00:26:37.356Z,97.99
2018-04-17T00:27:37.355Z,98.55
2018-04-17T00:28:37.350Z,98.08
2018-04-17T00:29:37.325Z,97.89
2018-04-17T00:30:37.327Z,97.99
2018-04-17T00:31:37.309Z,98.08
2018-04-17T00:32:37.349Z,98.27
2018-04-17T00:33:37.324Z,98.27
2018-04-17T00:34:37.309Z,98.46
2018-04-17T00:35:37.354Z,98.65
2018-04-17T00:36:37.303Z,98.84
2018-04-17T00:37:37.285Z,98.94
2018-04-17T00:38:37.280Z,98.74
2018-04-17T00:39:37.344Z,98.74
2018-04-17T00:40:37.309Z,99.03
2018-04-17T00:41:37.361Z,99.17
2018-04-17T00:42:37.260Z,98.79
2018-04-17T00:43:37.278Z,98.84
2018-04-17T00:44:37.242Z,99.03
2018-04-17T00:45:37.232Z,99.03
2018-04-17T00:46:37.236Z,98.13
2018-04-17T00:47:37.262Z,98.98
2018-04-17T00:48:37.281Z,98.60
2018-04-17T00:49:37.227Z,99.17
2018-04-17T00:50:37.199Z,98.98
2018-04-17T00:51:37.204Z,98.98
2018-04-17T00:52:37.207Z,98.98
2018-04-17T00:53:37.237Z,98.88
2018-04-17T00:54:37.187Z,99.08
2018-04-17T00:55:37.183Z,98.98
2018-04-17T00:56:37.181Z,99.17
2018-04-17T00:57:37.186Z,98.88
2018-04-17T00:58:37.144Z,99.27
2018-04-17T00:59:37.154Z,99.46
2018-04-17T01:00:39.748Z,98.79
2018-04-17T01:01:37.165Z,99.17
2018-04-17T01:02:37.148Z,98.79
2018-04-17T01:03:37.138Z,98.98
2018-04-17T01:04:37.143Z,99.17
2018-04-17T01:05:37.107Z,99.17
2018-04-17T01:06:37.117Z,99.55
2018-04-17T01:07:37.118Z,99.27
2018-04-17T01:08:37.103Z,99.17
2018-04-17T01:09:37.103Z,99.27
2018-04-17T01:10:37.087Z,99.46
2018-04-17T01:11:37.089Z,98.98
2018-04-17T01:12:37.063Z,98.88
2018-04-17T01:13:37.069Z,99.17
2018-04-17T01:14:37.066Z,98.79
2018-04-17T01:15:37.062Z,99.17
2018-04-17T01:16:37.076Z,99.36
2018-04-17T01:17:37.056Z,98.98
2018-04-17T01:18:37.047Z,99.17
2018-04-17T01:19:37.293Z,99.99
2018-04-17T01:20:37.048Z,99.84
2018-04-17T01:21:37.038Z,99.55
2018-04-17T01:22:37.029Z,99.74
2018-04-17T01:23:37.013Z,99.65
2018-04-17T01:24:37.014Z,99.93
2018-04-17T01:25:37.022Z,99.99
2018-04-17T01:26:36.997Z,99.99
2018-04-17T01:27:36.998Z,99.99
2018-04-17T01:28:36.986Z,99.99
2018-04-17T01:29:36.995Z,99.99
2018-04-17T01:30:36.983Z,99.99
2018-04-17T01:31:36.970Z,99.99
2018-04-17T01:32:36.976Z,99.99
2018-04-17T01:33:36.957Z,99.99
2018-04-17T01:34:36.939Z,99.99
2018-04-17T01:35:36.929Z,99.99
2018-04-17T01:36:37.781Z,99.99
2018-04-17T01:37:37.768Z,99.99
2018-04-17T01:38:36.921Z,99.99
2018-04-17T01:39:36.927Z,99.99
2018-04-17T01:40:36.911Z,99.99
2018-04-17T01:41:36.904Z,99.99
2018-04-17T01:42:36.910Z,99.99
2018-04-17T01:43:36.890Z,99.99
2018-04-17T01:44:36.886Z,99.99
2018-04-17T01:45:36.895Z,99.99
2018-04-17T01:46:36.869Z,99.99
2018-04-17T01:47:36.883Z,99.99
2018-04-17T01:48:36.853Z,99.99
2018-04-17T01:49:36.860Z,99.99
2018-04-17T01:50:36.913Z,99.99
2018-04-17T01:51:36.915Z,99.99
2018-04-17T01:52:36.903Z,99.99
2018-04-17T01:53:36.905Z,99.99
2018-04-17T01:54:36.854Z,99.99
2018-04-17T01:55:36.845Z,99.99
2018-04-17T01:56:37.769Z,99.99
2018-04-17T01:57:36.838Z,99.99
2018-04-17T01:58:36.813Z,99.99
2018-04-17T01:59:36.817Z,99.99
2018-04-17T02:00:36.798Z,99.99
2018-04-17T02:01:36.775Z,99.99
2018-04-17T02:02:36.784Z,99.99
2018-04-17T02:03:36.772Z,99.99
2018-04-17T02:04:36.763Z,99.99
2018-04-17T02:05:36.757Z,99.99
2018-04-17T02:06:36.767Z,99.99
2018-04-17T02:07:36.744Z,99.99
2018-04-17T02:08:36.743Z,99.99
2018-04-17T02:09:36.743Z,99.99
2018-04-17T02:10:36.728Z,99.99
2018-04-17T02:11:36.737Z,99.99
2018-04-17T02:12:36.712Z,99.99
2018-04-17T02:13:36.716Z,99.99
2018-04-17T02:14:36.706Z,99.99
2018-04-17T02:15:36.706Z,99.99
2018-04-17T02:16:36.689Z,99.99
2018-04-17T02:17:36.702Z,99.99
2018-04-17T02:18:36.692Z,99.99
2018-04-17T02:19:36.668Z,99.99
2018-04-17T02:20:36.680Z,99.99
2018-04-17T02:21:36.668Z,99.99
2018-04-17T02:22:36.656Z,99.99
2018-04-17T02:23:36.651Z,99.99
2018-04-17T02:24:36.663Z,99.99
2018-04-17T02:25:36.633Z,99.99
2018-04-17T02:26:36.630Z,99.99
2018-04-17T02:27:36.621Z,99.99
2018-04-17T02:28:36.615Z,99.99
2018-04-17T02:29:36.606Z,99.99
2018-04-17T02:30:36.604Z,99.99
2018-04-17T02:31:36.604Z,99.99
2018-04-17T02:32:36.592Z,99.99
2018-04-17T02:33:36.598Z,99.99
2018-04-17T02:34:36.584Z,99.99
2018-04-17T02:35:36.582Z,99.99
2018-04-17T02:36:36.590Z,99.99
2018-04-17T02:37:36.566Z,99.99
2018-04-17T02:38:36.559Z,99.99
2018-04-17T02:39:39.313Z,99.99
2018-04-17T02:40:36.575Z,99.99
2018-04-17T02:41:36.566Z,99.99
2018-04-17T02:42:36.536Z,99.99
2018-04-17T02:43:36.557Z,99.99
2018-04-17T02:44:36.508Z,99.99
2018-04-17T02:45:36.517Z,99.99
2018-04-17T02:46:36.507Z,99.99
2018-04-17T02:47:36.502Z,99.99
2018-04-17T02:48:36.488Z,99.99
2018-04-17T02:49:36.493Z,99.99
2018-04-17T02:50:36.478Z,99.99
2018-04-17T02:51:36.483Z,99.99
2018-04-17T02:52:36.473Z,99.99
2018-04-17T02:53:36.481Z,99.99
2018-04-17T02:54:36.530Z,99.99
2018-04-17T02:55:36.450Z,99.99
2018-04-17T02:56:37.327Z,99.99
2018-04-17T02:57:36.443Z,99.99
2018-04-17T02:58:36.452Z,99.99
2018-04-17T02:59:36.431Z,99.99
2018-04-17T03:00:36.411Z,99.99
2018-04-17T03:01:36.426Z,99.99
2018-04-17T03:02:36.412Z,99.99
2018-04-17T03:03:36.411Z,99.99
2018-04-17T03:04:36.401Z,99.99
2018-04-17T03:05:36.421Z,99.99
2018-04-17T03:06:36.384Z,99.99
2018-04-17T03:07:36.387Z,99.99
2018-04-17T03:08:36.377Z,99.99
2018-04-17T03:09:36.409Z,99.99
2018-04-17T03:10:36.359Z,99.99
2018-04-17T03:11:36.335Z,99.99
2018-04-17T03:12:36.367Z,99.99
2018-04-17T03:13:39.307Z,99.99
2018-04-17T03:14:36.360Z,99.99
2018-04-17T03:15:36.332Z,99.99
2018-04-17T03:16:36.353Z,99.99
2018-04-17T03:17:36.352Z,99.99
2018-04-17T03:18:36.318Z,99.99
2018-04-17T03:19:36.272Z,99.99
2018-04-17T03:20:36.306Z,99.99
2018-04-17T03:21:36.313Z,99.99
2018-04-17T03:22:36.313Z,99.99
2018-04-17T03:23:36.320Z,99.99
2018-04-17T03:24:36.268Z,99.99
2018-04-17T03:25:36.288Z,99.99
2018-04-17T03:26:36.308Z,99.99
2018-04-17T03:27:36.275Z,99.99
2018-04-17T03:28:36.239Z,99.99
2018-04-17T03:29:36.233Z,99.99
2018-04-17T03:30:36.216Z,99.99
2018-04-17T03:31:36.238Z,99.99
2018-04-17T03:32:36.229Z,99.99
2018-04-17T03:33:36.203Z,99.99
2018-04-17T03:34:36.210Z,99.99
2018-04-17T03:35:36.826Z,99.99
2018-04-17T03:36:36.194Z,99.99
2018-04-17T03:37:36.188Z,99.99
2018-04-17T03:38:36.166Z,99.99
2018-04-17T03:39:36.151Z,99.99
2018-04-17T03:40:36.150Z,99.99
2018-04-17T03:41:36.116Z,99.99
2018-04-17T03:42:36.136Z,99.99
2018-04-17T03:43:36.134Z,99.99
2018-04-17T03:44:36.152Z,99.99
2018-04-17T03:45:36.123Z,99.99
2018-04-17T03:46:36.163Z,99.99
2018-04-17T03:47:36.110Z,99.99
2018-04-17T03:48:36.131Z,99.99
2018-04-17T03:49:36.114Z,99.99
2018-04-17T03:50:36.112Z,99.99
2018-04-17T03:51:36.125Z,99.99
2018-04-17T03:52:36.084Z,99.99
2018-04-17T03:53:36.079Z,99.99
2018-04-17T03:54:36.056Z,99.99
2018-04-17T03:55:36.068Z,99.99
2018-04-17T03:56:36.047Z,99.99
2018-04-17T03:57:36.050Z,99.99
2018-04-17T03:58:36.010Z,99.99
2018-04-17T03:59:36.077Z,99.99
2018-04-17T04:00:36.033Z,99.99
2018-04-17T04:01:36.025Z,99.99
2018-04-17T04:02:36.026Z,99.99
2018-04-17T04:03:35.999Z,99.99
2018-04-17T04:04:36.038Z,99.99
2018-04-17T04:05:36.046Z,99.99
2018-04-17T04:06:36.023Z,99.99
2018-04-17T04:07:35.981Z,99.99
2018-04-17T04:08:35.983Z,99.99
2018-04-17T04:09:35.980Z,99.99
2018-04-17T04:10:35.960Z,99.99
2018-04-17T04:11:35.944Z,99.99
2018-04-17T04:12:35.948Z,99.99
2018-04-17T04:13:35.935Z,99.99
2018-04-17T04:14:35.921Z,99.99
2018-04-17T04:15:35.962Z,99.99
2018-04-17T04:16:35.924Z,99.99
2018-04-17T04:17:35.970Z,99.99
2018-04-17T04:18:35.966Z,99.99
2018-04-17T04:19:36.946Z,99.99
2018-04-17T04:20:35.889Z,99.99
2018-04-17T04:21:35.882Z,99.99
2018-04-17T04:22:35.861Z,99.99
2018-04-17T04:23:35.865Z,99.99
2018-04-17T04:24:35.902Z,99.99
2018-04-17T04:25:35.932Z,99.99
2018-04-17T04:26:35.881Z,99.99
2018-04-17T04:27:35.844Z,99.99
2018-04-17T04:28:35.877Z,99.99
2018-04-17T04:29:35.853Z,99.99
2018-04-17T04:30:35.831Z,99.99
2018-04-17T04:31:35.806Z,99.99
2018-04-17T04:32:35.800Z,99.99
2018-04-17T04:33:35.787Z,99.99
2018-04-17T04:34:35.870Z,99.99
2018-04-17T04:35:35.793Z,99.99
2018-04-17T04:36:35.751Z,99.99
2018-04-17T04:37:35.770Z,99.99
2018-04-17T04:38:35.773Z,99.99
2018-04-17T04:39:35.753Z,99.99
2018-04-17T04:40:35.749Z,99.99
2018-04-17T04:41:35.755Z,99.99
2018-04-17T04:42:35.761Z,99.99
2018-04-17T04:43:35.748Z,99.99
2018-04-17T04:44:35.721Z,99.99
2018-04-17T04:45:35.711Z,99.99
2018-04-17T04:46:35.712Z,99.99
2018-04-17T04:47:35.803Z,99.99
2018-04-17T04:48:35.717Z,99.99
2018-04-17T04:49:35.694Z,99.99
2018-04-17T04:50:35.691Z,99.99
2018-04-17T04:51:35.698Z,99.99
2018-04-17T04:52:35.716Z,99.99
2018-04-17T04:53:35.718Z,99.99
2018-04-17T04:54:36.347Z,99.99
2018-04-17T04:55:36.327Z,99.99
2018-04-17T04:56:36.400Z,99.99
2018-04-17T04:57:35.638Z,99.99
2018-04-17T04:58:35.634Z,99.99
2018-04-17T04:59:35.678Z,99.99
2018-04-17T05:00:35.627Z,99.99
2018-04-17T05:01:35.625Z,99.99
2018-04-17T05:02:35.624Z,99.99
2018-04-17T05:03:35.718Z,99.99
2018-04-17T05:04:35.636Z,99.99
2018-04-17T05:05:35.602Z,99.99
2018-04-17T05:06:36.363Z,99.99
2018-04-17T05:07:35.655Z,99.99
2018-04-17T05:08:35.647Z,99.99
2018-04-17T05:09:35.586Z,99.99
2018-04-17T05:10:36.356Z,99.99
2018-04-17T05:11:35.588Z,99.99
2018-04-17T05:12:35.711Z,99.99
2018-04-17T05:13:35.586Z,99.99
2018-04-17T05:14:35.594Z,99.99
2018-04-17T05:15:35.578Z,99.79
2018-04-17T05:16:35.597Z,99.69
2018-04-17T05:17:35.579Z,99.60
2018-04-17T05:18:35.567Z,99.50
2018-04-17T05:19:35.489Z,98.93
2018-04-17T05:20:35.575Z,99.02
2018-04-17T05:21:35.474Z,99.12
2018-04-17T05:22:35.491Z,98.79
2018-04-17T05:23:35.520Z,98.69
2018-04-17T05:24:35.512Z,98.79
2018-04-17T05:25:35.492Z,98.79
2018-04-17T05:26:35.437Z,98.32
2018-04-17T05:27:35.458Z,97.84
2018-04-17T05:28:35.425Z,97.74
2018-04-17T05:29:35.415Z,96.75
2018-04-17T05:30:35.434Z,96.55
2018-04-17T05:31:35.420Z,95.89
2018-04-17T05:32:35.441Z,95.12
2018-04-17T05:33:35.403Z,94.22
2018-04-17T05:34:35.399Z,94.60
2018-04-17T05:35:35.363Z,94.22
2018-04-17T05:36:35.377Z,93.46
2018-04-17T05:37:35.386Z,92.74
2018-04-17T05:38:35.419Z,91.98
2018-04-17T05:39:35.448Z,91.88
2018-04-17T05:40:35.352Z,91.03
2018-04-17T05:41:35.346Z,89.83
2018-04-17T05:42:35.362Z,88.78
2018-04-17T05:43:35.879Z,88.40
2018-04-17T05:44:35.342Z,87.54
2018-04-17T05:45:35.339Z,87.11
2018-04-17T05:46:35.351Z,87.02
2018-04-17T05:47:35.311Z,85.77
2018-04-17T05:48:35.330Z,85.49
2018-04-17T05:49:35.325Z,85.44
2018-04-17T05:50:35.313Z,84.96
2018-04-17T05:51:35.322Z,84.29
2018-04-17T05:52:35.318Z,83.57
2018-04-17T05:53:35.326Z,83.00
2018-04-17T05:54:35.335Z,82.71
2018-04-17T05:55:35.894Z,82.61
2018-04-17T05:56:35.309Z,82.28
2018-04-17T05:57:35.300Z,82.08
2018-04-17T05:58:35.312Z,80.93
2018-04-17T05:59:37.880Z,80.55
2018-04-17T06:00:35.285Z,79.88
2018-04-17T06:01:35.291Z,79.69
2018-04-17T06:02:35.283Z,78.87
2018-04-17T06:03:35.281Z,78.97
2018-04-17T06:04:35.262Z,78.78
2018-04-17T06:05:35.265Z,78.68
2018-04-17T06:06:35.277Z,78.87
2018-04-17T06:07:35.284Z,77.67
2018-04-17T06:08:35.279Z,77.38
2018-04-17T06:09:35.262Z,76.71
2018-04-17T06:10:35.257Z,76.42
2018-04-17T06:11:35.265Z,75.85
2018-04-17T06:12:35.243Z,75.41
2018-04-17T06:13:35.253Z,75.22
2018-04-17T06:14:35.245Z,75.02
2018-04-17T06:15:35.244Z,75.02
2018-04-17T06:16:35.245Z,75.12
2018-04-17T06:17:35.235Z,75.12
2018-04-17T06:18:35.235Z,75.16
2018-04-17T06:19:35.235Z,74.58
2018-04-17T06:20:35.244Z,74.77
2018-04-17T06:21:35.881Z,72.58
2018-04-17T06:22:35.233Z,72.19
2018-04-17T06:23:35.235Z,72.67
2018-04-17T06:24:35.217Z,72.38
2018-04-17T06:25:35.244Z,72.67
2018-04-17T06:26:35.215Z,72.52
2018-04-17T06:27:35.236Z,71.94
2018-04-17T06:28:35.241Z,71.66
2018-04-17T06:29:35.252Z,71.27
2018-04-17T06:30:35.235Z,70.98
2018-04-17T06:31:35.223Z,71.37
2018-04-17T06:32:35.885Z,71.17
2018-04-17T06:33:35.232Z,71.27
2018-04-17T06:34:35.238Z,71.37
2018-04-17T06:35:35.221Z,71.56
2018-04-17T06:36:35.231Z,71.08
2018-04-17T06:37:35.240Z,70.98
2018-04-17T06:38:35.247Z,71.46
2018-04-17T06:39:35.235Z,71.27
2018-04-17T06:40:35.241Z,70.79
2018-04-17T06:41:35.228Z,70.50
2018-04-17T06:42:35.219Z,70.03
2018-04-17T06:43:35.214Z,70.60
2018-04-17T06:44:35.222Z,70.21
2018-04-17T06:45:35.232Z,69.93
2018-04-17T06:46:35.220Z,70.03
2018-04-17T06:47:35.309Z,69.45
2018-04-17T06:48:35.213Z,69.29
2018-04-17T06:49:35.231Z,69.35
2018-04-17T06:50:35.232Z,69.45
2018-04-17T06:51:35.223Z,69.77
2018-04-17T06:52:35.265Z,69.58
2018-04-17T06:53:35.214Z,69.29
2018-04-17T06:54:35.234Z,69.39
2018-04-17T06:55:35.214Z,68.72
2018-04-17T06:56:35.235Z,67.95
2018-04-17T06:57:35.220Z,68.72
2018-04-17T06:58:35.213Z,68.24
2018-04-17T06:59:35.218Z,68.52
2018-04-17T07:00:35.225Z,67.85
2018-04-17T07:01:35.207Z,68.24
2018-04-17T07:02:35.228Z,69.48
2018-04-17T07:03:35.228Z,68.91
2018-04-17T07:04:35.215Z,67.95
2018-04-17T07:05:35.246Z,68.05
2018-04-17T07:06:35.230Z,67.76
2018-04-17T07:07:35.233Z,68.08
2018-04-17T07:08:35.239Z,68.46
2018-04-17T07:09:35.237Z,68.27
2018-04-17T07:10:35.230Z,67.99
2018-04-17T07:11:35.222Z,67.89
2018-04-17T07:12:35.232Z,67.79
2018-04-17T07:13:35.231Z,67.60
2018-04-17T07:14:35.242Z,67.69
2018-04-17T07:15:35.218Z,68.37
2018-04-17T07:16:35.233Z,67.99
2018-04-17T07:17:35.235Z,66.58
2018-04-17T07:18:35.241Z,67.06
2018-04-17T07:19:35.253Z,67.06
2018-04-17T07:20:35.261Z,67.54
2018-04-17T07:21:35.249Z,67.92
2018-04-17T07:22:35.242Z,66.96
2018-04-17T07:23:35.254Z,67.63
2018-04-17T07:24:35.253Z,67.06
2018-04-17T07:25:35.258Z,66.77
2018-04-17T07:26:35.259Z,66.67
2018-04-17T07:27:35.265Z,66.58
2018-04-17T07:28:35.904Z,66.80
2018-04-17T07:29:35.237Z,65.75
2018-04-17T07:30:35.919Z,66.23
2018-04-17T07:31:35.256Z,65.75
2018-04-17T07:32:35.256Z,66.13
2018-04-17T07:33:35.256Z,66.61
2018-04-17T07:34:35.268Z,67.38
2018-04-17T07:35:35.270Z,65.46
2018-04-17T07:36:35.247Z,64.69
2018-04-17T07:37:35.903Z,64.31
2018-04-17T07:38:35.268Z,65.17
2018-04-17T07:39:35.261Z,65.01
2018-04-17T07:40:35.284Z,64.79
2018-04-17T07:41:35.267Z,65.46
2018-04-17T07:42:35.916Z,65.84
2018-04-17T07:43:35.929Z,66.33
2018-04-17T07:44:35.275Z,65.65
2018-04-17T07:45:35.257Z,65.01
2018-04-17T07:46:35.258Z,65.17
2018-04-17T07:47:35.251Z,65.30
2018-04-17T07:48:35.265Z,65.49
2018-04-17T07:49:35.283Z,65.46
2018-04-17T07:50:35.267Z,65.78
2018-04-17T07:51:35.290Z,64.72
2018-04-17T07:52:35.269Z,63.96
2018-04-17T07:53:35.401Z,63.76
2018-04-17T07:54:35.278Z,63.96
2018-04-17T07:55:35.273Z,64.72
2018-04-17T07:56:35.265Z,65.88
2018-04-17T07:57:35.284Z,64.95
2018-04-17T07:58:35.275Z,64.09
2018-04-17T07:59:35.276Z,63.09
2018-04-17T08:00:35.289Z,63.12
2018-04-17T08:01:35.303Z,63.41
2018-04-17T08:02:35.288Z,63.79
2018-04-17T08:03:35.282Z,63.79
2018-04-17T08:04:35.280Z,63.41
2018-04-17T08:05:35.311Z,63.79
2018-04-17T08:06:35.302Z,63.41
2018-04-17T08:07:35.299Z,62.10
2018-04-17T08:08:35.303Z,62.35
2018-04-17T08:09:35.285Z,62.74
2018-04-17T08:10:35.289Z,62.58
2018-04-17T08:11:35.273Z,62.58
2018-04-17T08:12:35.307Z,62.38
2018-04-17T08:13:35.309Z,62.38
2018-04-17T08:14:35.930Z,62.58
2018-04-17T08:15:35.297Z,63.64
2018-04-17T08:16:35.307Z,62.58
2018-04-17T08:17:35.358Z,61.71
2018-04-17T08:18:35.343Z,61.33
2018-04-17T08:19:35.304Z,62.00
2018-04-17T08:20:35.304Z,61.43
2018-04-17T08:21:35.307Z,61.52
2018-04-17T08:22:35.312Z,61.91
2018-04-17T08:23:35.309Z,62.07
2018-04-17T08:24:35.312Z,62.16
2018-04-17T08:25:35.301Z,62.93
2018-04-17T08:26:35.304Z,64.09
2018-04-17T08:27:35.285Z,64.56
2018-04-17T08:28:35.320Z,63.70
2018-04-17T08:29:35.299Z,63.89
2018-04-17T08:30:35.315Z,62.55
2018-04-17T08:31:35.306Z,62.84
2018-04-17T08:32:35.306Z,62.93
2018-04-17T08:33:35.317Z,63.12
2018-04-17T08:34:35.311Z,62.77
2018-04-17T08:35:35.297Z,63.25
2018-04-17T08:36:35.297Z,62.77
2018-04-17T08:37:35.306Z,62.10
2018-04-17T08:38:35.314Z,61.91
2018-04-17T08:39:35.307Z,62.19
2018-04-17T08:40:35.316Z,61.91
2018-04-17T08:41:35.297Z,62.19
2018-04-17T08:42:35.332Z,61.81
2018-04-17T08:43:35.331Z,62.26
2018-04-17T08:44:35.326Z,62.99
2018-04-17T08:45:35.320Z,64.25
2018-04-17T08:46:35.328Z,65.14
2018-04-17T08:47:35.331Z,64.56
2018-04-17T08:48:35.300Z,63.79
2018-04-17T08:49:35.959Z,64.37
2018-04-17T08:50:35.319Z,65.23
2018-04-17T08:51:35.308Z,63.60
2018-04-17T08:52:35.311Z,63.89
2018-04-17T08:53:35.301Z,63.89
2018-04-17T08:54:35.321Z,64.18
2018-04-17T08:55:35.317Z,62.55
2018-04-17T08:56:35.324Z,62.45
2018-04-17T08:57:35.333Z,62.64
2018-04-17T08:58:35.323Z,62.35
2018-04-17T08:59:35.334Z,62.26
2018-04-17T09:00:35.335Z,62.10
2018-04-17T09:01:35.325Z,61.97
2018-04-17T09:02:35.330Z,62.48
2018-04-17T09:03:35.325Z,63.35
2018-04-17T09:04:35.328Z,62.87
2018-04-17T09:05:35.316Z,62.96
2018-04-17T09:06:35.319Z,62.68
2018-04-17T09:07:35.319Z,62.19
2018-04-17T09:08:35.323Z,62.48
2018-04-17T09:09:35.308Z,61.71
2018-04-17T09:10:35.310Z,61.91
2018-04-17T09:11:35.311Z,61.43
2018-04-17T09:12:35.315Z,62.29
2018-04-17T09:13:35.331Z,62.29
2018-04-17T09:14:35.316Z,61.71
2018-04-17T09:15:35.320Z,61.71
2018-04-17T09:16:35.312Z,61.33
2018-04-17T09:17:35.318Z,61.81
2018-04-17T09:18:35.322Z,61.33
2018-04-17T09:19:35.317Z,61.91
2018-04-17T09:20:35.300Z,61.14
2018-04-17T09:21:35.296Z,60.75
2018-04-17T09:22:35.301Z,60.66
2018-04-17T09:23:35.293Z,61.14
2018-04-17T09:24:35.294Z,60.94
2018-04-17T09:25:35.309Z,60.46
2018-04-17T09:26:35.319Z,60.37
2018-04-17T09:27:35.360Z,60.46
2018-04-17T09:28:35.307Z,60.66
2018-04-17T09:29:35.314Z,61.04
2018-04-17T09:30:35.313Z,61.23
2018-04-17T09:31:35.309Z,61.33
2018-04-17T09:32:35.320Z,61.04
2018-04-17T09:33:35.293Z,60.78
2018-04-17T09:34:35.425Z,61.04
2018-04-17T09:35:35.302Z,60.49
2018-04-17T09:36:35.303Z,61.16
2018-04-17T09:37:35.303Z,59.15
2018-04-17T09:38:35.295Z,58.37
2018-04-17T09:39:35.314Z,58.67
2018-04-17T09:40:35.320Z,58.57
2018-04-17T09:41:35.303Z,59.24
2018-04-17T09:42:35.350Z,59.24
2018-04-17T09:43:35.318Z,58.57
2018-04-17T09:44:35.319Z,58.57
2018-04-17T09:45:35.312Z,57.99
2018-04-17T09:46:35.313Z,57.80
2018-04-17T09:47:35.313Z,58.57
2018-04-17T09:48:35.311Z,58.67
2018-04-17T09:49:35.304Z,58.86
2018-04-17T09:50:35.350Z,58.37
2018-04-17T09:51:35.291Z,57.83
2018-04-17T09:52:35.286Z,58.09
2018-04-17T09:53:36.005Z,58.09
2018-04-17T09:54:35.307Z,58.12
2018-04-17T09:55:35.302Z,57.25
2018-04-17T09:56:35.295Z,57.35
2018-04-17T09:57:35.308Z,57.83
2018-04-17T09:58:35.313Z,57.42
2018-04-17T09:59:35.291Z,57.73
2018-04-17T10:00:35.300Z,57.73
2018-04-17T10:01:35.302Z,57.35
2018-04-17T10:02:35.298Z,56.96
2018-04-17T10:03:35.352Z,56.77
2018-04-17T10:04:35.300Z,56.77
2018-04-17T10:05:35.309Z,56.48
2018-04-17T10:06:35.306Z,56.77
2018-04-17T10:07:35.289Z,56.10
2018-04-17T10:08:35.314Z,56.77
2018-04-17T10:09:35.295Z,56.87
2018-04-17T10:10:35.306Z,56.00
2018-04-17T10:11:35.306Z,56.29
2018-04-17T10:12:35.302Z,55.65
2018-04-17T10:13:35.286Z,55.43
2018-04-17T10:14:35.306Z,57.06
2018-04-17T10:15:35.287Z,56.60
2018-04-17T10:16:35.296Z,56.80
2018-04-17T10:17:35.296Z,56.51
2018-04-17T10:18:35.291Z,56.51
2018-04-17T10:19:35.307Z,55.65
2018-04-17T10:20:35.301Z,55.74
2018-04-17T10:21:35.303Z,56.32
2018-04-17T10:22:35.310Z,55.74
2018-04-17T10:23:35.295Z,55.65
2018-04-17T10:24:35.301Z,55.74
2018-04-17T10:25:35.302Z,54.20
2018-04-17T10:26:35.299Z,54.68
2018-04-17T10:27:35.308Z,54.30
2018-04-17T10:28:35.335Z,54.68
2018-04-17T10:29:35.313Z,54.87
2018-04-17T10:30:35.293Z,55.26
2018-04-17T10:31:35.325Z,54.68
2018-04-17T10:32:35.303Z,54.71
2018-04-17T10:33:35.291Z,55.00
2018-04-17T10:34:35.292Z,54.61
2018-04-17T10:35:35.311Z,53.65
2018-04-17T10:36:35.299Z,52.69
2018-04-17T10:37:35.294Z,53.36
2018-04-17T10:38:35.310Z,53.74
2018-04-17T10:39:35.300Z,53.55
2018-04-17T10:40:35.309Z,53.17
2018-04-17T10:41:35.326Z,53.65
2018-04-17T10:42:35.305Z,53.45
2018-04-17T10:43:35.322Z,52.87
2018-04-17T10:44:35.314Z,52.30
2018-04-17T10:45:35.329Z,52.78
2018-04-17T10:46:35.379Z,53.07
2018-04-17T10:47:35.324Z,51.50
2018-04-17T10:48:35.315Z,52.11
2018-04-17T10:49:35.318Z,53.17
2018-04-17T10:50:36.028Z,53.17
2018-04-17T10:51:35.310Z,53.27
2018-04-17T10:52:35.326Z,52.11
2018-04-17T10:53:35.311Z,52.40
2018-04-17T10:54:35.335Z,52.11
2018-04-17T10:55:35.313Z,52.30
2018-04-17T10:56:35.337Z,52.75
2018-04-17T10:57:35.319Z,52.08
2018-04-17T10:58:35.311Z,51.62
2018-04-17T10:59:35.325Z,52.11
2018-04-17T11:00:36.021Z,52.40
2018-04-17T11:01:35.307Z,52.69
2018-04-17T11:02:35.306Z,52.49
2018-04-17T11:03:35.317Z,52.01
2018-04-17T11:04:35.321Z,51.72
2018-04-17T11:05:35.303Z,52.01
2018-04-17T11:06:35.319Z,50.85
2018-04-17T11:07:35.342Z,50.76
2018-04-17T11:08:35.320Z,50.85
2018-04-17T11:09:35.306Z,51.14
2018-04-17T11:10:35.317Z,52.40
2018-04-17T11:11:35.326Z,52.59
2018-04-17T11:12:35.318Z,52.78
2018-04-17T11:13:35.338Z,53.27
2018-04-17T11:14:35.332Z,52.20
2018-04-17T11:15:35.327Z,51.72
2018-04-17T11:16:35.319Z,50.47
2018-04-17T11:17:35.332Z,50.76
2018-04-17T11:18:35.332Z,51.34
2018-04-17T11:19:35.321Z,50.66
2018-04-17T11:20:35.325Z,49.89
2018-04-17T11:21:35.317Z,51.24
2018-04-17T11:22:35.314Z,51.24
2018-04-17T11:23:35.324Z,51.62
2018-04-17T11:24:35.318Z,52.11
2018-04-17T11:25:35.320Z,51.72
2018-04-17T11:26:35.323Z,50.66
2018-04-17T11:27:35.312Z,50.66
2018-04-17T11:28:35.328Z,49.60
2018-04-17T11:29:35.334Z,50.66
2018-04-17T11:30:35.331Z,50.57
2018-04-17T11:31:35.331Z,49.79
2018-04-17T11:32:35.325Z,50.47
2018-04-17T11:33:35.330Z,51.24
2018-04-17T11:34:35.398Z,51.24
2018-04-17T11:35:35.332Z,50.57
2018-04-17T11:36:35.324Z,51.14
2018-04-17T11:37:35.326Z,50.78
2018-04-17T11:38:35.330Z,50.30
2018-04-17T11:39:35.337Z,50.59
2018-04-17T11:40:35.351Z,50.49
2018-04-17T11:41:35.311Z,49.82
2018-04-17T11:42:35.339Z,48.95
2018-04-17T11:43:36.047Z,48.47
2018-04-17T11:44:35.336Z,48.86
2018-04-17T11:45:35.343Z,48.57
2018-04-17T11:46:35.335Z,48.66
2018-04-17T11:47:35.337Z,48.76
2018-04-17T11:48:35.329Z,49.15
2018-04-17T11:49:35.331Z,49.43
2018-04-17T11:50:35.332Z,50.59
2018-04-17T11:51:35.341Z,52.13
2018-04-17T11:52:35.345Z,51.46
2018-04-17T11:53:35.343Z,51.07
2018-04-17T11:54:35.349Z,51.26
2018-04-17T11:55:35.346Z,50.49
2018-04-17T11:56:36.069Z,49.43
2018-04-17T11:57:35.388Z,48.47
2018-04-17T11:58:35.327Z,47.80
2018-04-17T11:59:35.346Z,48.86
2018-04-17T12:00:35.326Z,49.73
2018-04-17T12:01:35.338Z,50.30
2018-04-17T12:02:35.324Z,49.91
2018-04-17T12:03:35.339Z,49.34
2018-04-17T12:04:35.338Z,50.01
2018-04-17T12:05:35.336Z,49.53
2018-04-17T12:06:35.345Z,49.75
2018-04-17T12:07:35.334Z,49.34
2018-04-17T12:08:35.349Z,48.86
2018-04-17T12:09:35.333Z,48.49
2018-04-17T12:10:36.090Z,48.30
2018-04-17T12:11:35.353Z,48.38
2018-04-17T12:12:35.361Z,47.70
2018-04-17T12:13:35.362Z,48.28
2018-04-17T12:14:35.338Z,48.18
2018-04-17T12:15:35.359Z,48.38
2018-04-17T12:16:35.335Z,48.28
2018-04-17T12:17:35.345Z,48.28
2018-04-17T12:18:35.357Z,48.97
2018-04-17T12:19:35.341Z,48.49
2018-04-17T12:20:35.335Z,49.84
2018-04-17T12:21:35.343Z,50.81
2018-04-17T12:22:35.341Z,50.42
2018-04-17T12:23:35.356Z,49.55
2018-04-17T12:24:35.360Z,49.84
2018-04-17T12:25:35.359Z,49.75
2018-04-17T12:26:35.372Z,49.55
2018-04-17T12:27:35.356Z,49.84
2018-04-17T12:28:35.345Z,49.07
2018-04-17T12:29:35.353Z,48.97
2018-04-17T12:30:35.360Z,48.69
2018-04-17T12:31:35.353Z,48.01
2018-04-17T12:32:35.368Z,48.88
2018-04-17T12:33:35.356Z,49.43
2018-04-17T12:34:35.372Z,49.17
2018-04-17T12:35:35.360Z,49.46
2018-04-17T12:36:35.348Z,50.42
2018-04-17T12:37:35.359Z,50.52
2018-04-17T12:38:35.353Z,50.42
2018-04-17T12:39:35.353Z,50.52
2018-04-17T12:40:35.346Z,49.84
2018-04-17T12:41:35.366Z,49.37
2018-04-17T12:42:35.348Z,48.49
2018-04-17T12:43:36.094Z,48.40
2018-04-17T12:44:35.359Z,48.69
2018-04-17T12:45:35.375Z,49.55
2018-04-17T12:46:35.372Z,49.84
2018-04-17T12:47:35.364Z,50.42
2018-04-17T12:48:35.362Z,48.97
2018-04-17T12:49:35.368Z,49.07
2018-04-17T12:50:35.358Z,48.59
2018-04-17T12:51:35.375Z,48.97
2018-04-17T12:52:35.373Z,49.07